createdAt,value
2023-11-30T00:00:17.295Z,0.103393
2023-11-30T00:05:16.338Z,0.084544
2023-11-30T00:10:17.214Z,0.063577
2023-11-30T00:15:16.005Z,0.055018
2023-11-30T00:20:16.110Z,0.052515
2023-11-30T00:25:15.964Z,0.050077
2023-11-30T00:30:15.823Z,0.046687
2023-11-30T00:35:16.090Z,0.042962
2023-11-30T00:40:15.867Z,0.039613
2023-11-30T00:45:16.266Z,0.039151
2023-11-30T00:50:16.510Z,0.036976
2023-11-30T00:55:15.847Z,0.038377
2023-11-30T01:00:16.751Z,0.037926
2023-11-30T01:05:16.750Z,0.037121
2023-11-30T01:10:16.117Z,0.037583
2023-11-30T01:15:16.978Z,0.036824
2023-11-30T01:20:16.288Z,0.038324
2023-11-30T01:25:16.703Z,0.039804
2023-11-30T01:30:16.290Z,0.037849
2023-11-30T01:35:16.736Z,0.038346
2023-11-30T01:40:16.644Z,0.039741
2023-11-30T01:45:16.752Z,0.040065
2023-11-30T01:50:15.833Z,0.038446
2023-11-30T01:55:16.123Z,0.038426
2023-11-30T02:00:16.422Z,0.037352
2023-11-30T02:05:16.228Z,0.039808
2023-11-30T02:10:17.104Z,0.038536
2023-11-30T02:15:16.536Z,0.039583
2023-11-30T02:20:16.442Z,0.038517
2023-11-30T02:25:15.909Z,0.039583
2023-11-30T02:30:16.472Z,0.039427
2023-11-30T02:35:16.357Z,0.038982
2023-11-30T02:40:16.482Z,0.038105
2023-11-30T02:45:32.316Z,0.039972
2023-11-30T02:50:15.880Z,0.039151
2023-11-30T02:55:16.452Z,0.040117
2023-11-30T03:00:16.752Z,0.038626
2023-11-30T03:05:15.956Z,0.037359
2023-11-30T03:10:16.047Z,0.038040
2023-11-30T03:15:17.106Z,0.037500
2023-11-30T03:20:16.436Z,0.037440
2023-11-30T03:25:16.089Z,0.037651
2023-11-30T03:30:16.216Z,0.038747
2023-11-30T03:35:16.840Z,0.039373
2023-11-30T03:40:15.947Z,0.037662
2023-11-30T03:45:18.579Z,0.038625
2023-11-30T03:50:16.231Z,0.037530
2023-11-30T03:55:17.983Z,0.038633
2023-11-30T04:00:16.117Z,0.038510
2023-11-30T04:05:17.749Z,0.038822
2023-11-30T04:10:15.920Z,0.038416
2023-11-30T04:15:16.110Z,0.038616
2023-11-30T04:20:17.356Z,0.040054
2023-11-30T04:25:15.793Z,0.038207
2023-11-30T04:30:16.007Z,0.038989
2023-11-30T04:35:17.116Z,0.039865
2023-11-30T04:40:16.222Z,0.038057
2023-11-30T04:45:16.042Z,0.039583
2023-11-30T04:50:16.170Z,0.038691
2023-11-30T04:55:15.995Z,0.039578
2023-11-30T05:00:15.773Z,0.038394
2023-11-30T05:05:16.244Z,0.038848
2023-11-30T05:10:16.589Z,0.038746
2023-11-30T05:15:15.892Z,0.039496
2023-11-30T05:20:15.745Z,0.037989
2023-11-30T05:25:15.944Z,0.038583
2023-11-30T05:30:16.500Z,0.038846
2023-11-30T05:35:16.552Z,0.039277
2023-11-30T05:40:16.214Z,0.037437
2023-11-30T05:45:15.897Z,0.038089
2023-11-30T05:50:16.054Z,0.039415
2023-11-30T05:55:16.534Z,0.036981
2023-11-30T06:00:16.871Z,0.038910
2023-11-30T06:05:17.097Z,0.038962
2023-11-30T06:10:15.999Z,0.037130
2023-11-30T06:15:17.451Z,0.037990
2023-11-30T06:20:16.142Z,0.037888
2023-11-30T06:25:16.252Z,0.038027
2023-11-30T06:30:15.986Z,0.038304
2023-11-30T06:35:16.896Z,0.039796
2023-11-30T06:40:16.341Z,0.038791
2023-11-30T06:45:16.698Z,0.039334
2023-11-30T06:50:16.367Z,0.039381
2023-11-30T06:55:16.571Z,0.038510
2023-11-30T07:00:16.889Z,0.038383
2023-11-30T07:05:15.874Z,0.039072
2023-11-30T07:10:16.131Z,0.039392
2023-11-30T07:15:16.631Z,0.038672
2023-11-30T07:20:17.384Z,0.039653
2023-11-30T07:25:16.369Z,0.039345
2023-11-30T07:30:16.053Z,0.038645
2023-11-30T07:35:16.209Z,0.038335
2023-11-30T07:40:16.594Z,0.037401
2023-11-30T07:45:17.424Z,0.039002
2023-11-30T07:50:16.003Z,0.039514
2023-11-30T07:55:16.242Z,0.038071
2023-11-30T08:00:17.195Z,0.038999
2023-11-30T08:05:15.837Z,0.038078
2023-11-30T08:10:16.727Z,0.038282
2023-11-30T08:15:16.042Z,0.039088
2023-11-30T08:20:16.347Z,0.038629
2023-11-30T08:25:16.125Z,0.039158
2023-11-30T08:30:16.602Z,0.039180
2023-11-30T08:35:16.027Z,0.038112
2023-11-30T08:40:18.355Z,0.038399
2023-11-30T08:45:18.065Z,0.037583
2023-11-30T08:50:16.517Z,0.038954
2023-11-30T08:55:16.618Z,0.038308
2023-11-30T09:00:20.401Z,0.038055
2023-11-30T09:05:16.664Z,0.039186
2023-11-30T09:10:16.090Z,0.038430
2023-11-30T09:15:16.445Z,0.039123
2023-11-30T09:20:16.021Z,0.037296
2023-11-30T09:25:15.974Z,0.038467
2023-11-30T09:30:16.143Z,0.037679
2023-11-30T09:35:16.277Z,0.038506
2023-11-30T09:40:15.967Z,0.037787
2023-11-30T09:45:16.336Z,0.039398
2023-11-30T09:50:15.944Z,0.038791
2023-11-30T09:55:16.258Z,0.039274
2023-11-30T10:00:18.065Z,0.038340
2023-11-30T10:05:17.756Z,0.038383
2023-11-30T10:10:15.864Z,0.037345
2023-11-30T10:15:16.059Z,0.037797
2023-11-30T10:20:17.196Z,0.039386
2023-11-30T10:25:15.932Z,0.039066
2023-11-30T10:30:17.919Z,0.039280
2023-11-30T10:35:16.067Z,0.037710
2023-11-30T10:40:19.159Z,0.038184
2023-11-30T10:45:17.500Z,0.038838
2023-11-30T10:50:16.345Z,0.038291
2023-11-30T10:55:15.725Z,0.038181
2023-11-30T11:00:16.490Z,0.037926
2023-11-30T11:05:15.742Z,0.037668
2023-11-30T11:10:19.789Z,0.039770
2023-11-30T11:15:18.143Z,0.039450
2023-11-30T11:20:18.009Z,0.038286
2023-11-30T11:25:16.724Z,0.038486
2023-11-30T11:30:15.923Z,0.037549
2023-11-30T11:35:15.777Z,0.039130
2023-11-30T11:40:17.030Z,0.038829
2023-11-30T11:45:16.983Z,0.038554
2023-11-30T11:50:16.701Z,0.037500
2023-11-30T11:55:16.643Z,0.038942
2023-11-30T12:00:15.981Z,0.039618
2023-11-30T12:05:15.940Z,0.039483
2023-11-30T12:10:15.744Z,0.039381
2023-11-30T12:15:16.704Z,0.040225
2023-11-30T12:20:16.143Z,0.040539
2023-11-30T12:25:16.363Z,0.039703
2023-11-30T12:30:16.066Z,0.039769
2023-11-30T12:35:18.102Z,0.041130
2023-11-30T12:40:17.099Z,0.039681
2023-11-30T12:45:15.919Z,0.040408
2023-11-30T12:50:16.157Z,0.039456
2023-11-30T12:55:18.705Z,0.038918
2023-11-30T13:00:16.827Z,0.041331
2023-11-30T13:05:15.873Z,0.040541
2023-11-30T13:10:16.261Z,0.038486
2023-11-30T13:15:17.422Z,0.039603
2023-11-30T13:20:16.051Z,0.039757
2023-11-30T13:25:16.542Z,0.039277
2023-11-30T13:30:16.595Z,0.040604
2023-11-30T13:35:16.473Z,0.040477
2023-11-30T13:40:16.547Z,0.039255
2023-11-30T13:45:16.760Z,0.038656
2023-11-30T13:50:26.041Z,0.038566
2023-11-30T13:55:16.592Z,0.038838
2023-11-30T14:00:15.875Z,0.039438
2023-11-30T14:05:16.157Z,0.040732
2023-11-30T14:10:15.919Z,0.038673
2023-11-30T14:15:15.892Z,0.039427
2023-11-30T14:20:15.961Z,0.039165
2023-11-30T14:25:16.846Z,0.040351
2023-11-30T14:30:17.396Z,0.038345
2023-11-30T14:35:17.347Z,0.039297
2023-11-30T14:40:17.495Z,0.038067
2023-11-30T14:45:15.939Z,0.039109
2023-11-30T14:50:18.024Z,0.039088
2023-11-30T14:55:18.827Z,0.039472
2023-11-30T15:00:17.801Z,0.039262
2023-11-30T15:05:20.320Z,0.039812
2023-11-30T15:10:17.584Z,0.039095
2023-11-30T15:15:16.946Z,0.040824
2023-11-30T15:20:20.114Z,0.042308
2023-11-30T15:25:17.561Z,0.044519
2023-11-30T15:30:17.611Z,0.051262
2023-11-30T15:35:17.986Z,0.055547
2023-11-30T15:40:16.824Z,0.062383
2023-11-30T15:45:15.978Z,0.071817
2023-11-30T15:50:16.230Z,0.085839
2023-11-30T15:55:16.217Z,0.104123
2023-11-30T16:00:15.870Z,0.118299
2023-11-30T16:05:17.311Z,0.136093
2023-11-30T16:10:16.776Z,0.154413
2023-11-30T16:15:15.762Z,0.179006
2023-11-30T16:20:16.780Z,0.200637
2023-11-30T16:25:17.332Z,0.251977
2023-11-30T16:30:18.678Z,0.279165
2023-11-30T16:35:18.933Z,0.292986
2023-11-30T16:40:15.736Z,0.295485
2023-11-30T16:45:15.867Z,0.324353
2023-11-30T16:50:16.333Z,0.354133
2023-11-30T16:55:15.950Z,0.406350
2023-11-30T17:00:16.555Z,0.454046
2023-11-30T17:05:15.744Z,0.483944
2023-11-30T17:10:15.966Z,0.523762
2023-11-30T17:15:17.614Z,0.565430
2023-11-30T17:20:15.773Z,0.604594
2023-11-30T17:25:16.410Z,0.629479
2023-11-30T17:30:23.663Z,0.652580
2023-11-30T17:35:20.452Z,0.674909
2023-11-30T17:40:17.276Z,0.692278
2023-11-30T17:45:23.744Z,0.634293
2023-11-30T17:50:16.000Z,0.591939
2023-11-30T17:55:18.208Z,0.599193
2023-11-30T18:00:17.575Z,0.634786
2023-11-30T18:05:15.880Z,0.693356
2023-11-30T18:10:16.083Z,0.759014
2023-11-30T18:15:20.601Z,0.838800
2023-11-30T18:20:21.024Z,0.894650
2023-11-30T18:25:18.115Z,0.878701
2023-11-30T18:30:16.478Z,0.875249
2023-11-30T18:35:17.803Z,0.880146
2023-11-30T18:40:16.990Z,0.906561
2023-11-30T18:45:15.920Z,0.998960
2023-11-30T18:50:16.019Z,1.085381
2023-11-30T18:55:17.409Z,1.114624
2023-11-30T19:00:16.589Z,1.124268
2023-11-30T19:05:16.529Z,1.086595
2023-11-30T19:10:17.507Z,1.040833
2023-11-30T19:15:16.448Z,0.964155
2023-11-30T19:20:16.748Z,0.769106
2023-11-30T19:25:17.398Z,0.699158
2023-11-30T19:30:17.622Z,0.671819
2023-11-30T19:35:18.370Z,0.582801
2023-11-30T19:40:16.440Z,0.512519
2023-11-30T19:45:18.755Z,0.721240
2023-11-30T19:50:17.104Z,0.857698
2023-11-30T19:55:17.013Z,0.846355
2023-11-30T20:00:16.289Z,0.842958
2023-11-30T20:05:16.953Z,0.655552
2023-11-30T20:10:16.176Z,0.493954
2023-11-30T20:15:16.737Z,0.471851
2023-11-30T20:20:15.919Z,0.600694
2023-11-30T20:25:16.693Z,0.742185
2023-11-30T20:30:16.210Z,0.797117
2023-11-30T20:35:16.234Z,1.007243
2023-11-30T20:40:16.485Z,1.266871
2023-11-30T20:45:16.079Z,1.317301
2023-11-30T20:50:16.494Z,1.434802
2023-11-30T20:55:16.266Z,1.547154
2023-11-30T21:00:15.785Z,1.462544
2023-11-30T21:05:16.209Z,1.293708
2023-11-30T21:10:16.462Z,1.126299
2023-11-30T21:15:16.225Z,1.041903
2023-11-30T21:20:16.924Z,1.007555
2023-11-30T21:25:16.618Z,0.994074
2023-11-30T21:30:16.830Z,1.067099
2023-11-30T21:35:16.731Z,1.007133
2023-11-30T21:40:15.926Z,0.964161
2023-11-30T21:45:16.172Z,0.940484
2023-11-30T21:50:16.867Z,0.969435
2023-11-30T21:55:16.259Z,1.019436
2023-11-30T22:00:17.299Z,0.831475
2023-11-30T22:05:24.103Z,0.701044
2023-11-30T22:10:16.181Z,0.544275
2023-11-30T22:15:15.842Z,0.349205
2023-11-30T22:20:17.655Z,0.274286
2023-11-30T22:25:16.184Z,0.320398
2023-11-30T22:30:16.048Z,0.380512
2023-11-30T22:35:17.445Z,0.467966
2023-11-30T22:40:16.621Z,0.507823
2023-11-30T22:45:15.837Z,0.424811
2023-11-30T22:50:16.343Z,0.332202
2023-11-30T22:55:16.285Z,0.299920
2023-11-30T23:00:16.260Z,0.264924
2023-11-30T23:05:16.294Z,0.220934
2023-11-30T23:10:15.777Z,0.185978
2023-11-30T23:15:16.643Z,0.146682
2023-11-30T23:20:16.420Z,0.118649
2023-11-30T23:25:15.933Z,0.108823
2023-11-30T23:30:16.889Z,0.103513
2023-11-30T23:35:16.010Z,0.092591
2023-11-30T23:40:16.493Z,0.078900
2023-11-30T23:45:15.940Z,0.076120
2023-11-30T23:50:15.960Z,0.068865
2023-11-30T23:55:16.247Z,0.057566
